sensor_id;sensor_type;location;lat;lon;timestamp;pressure;altitude;pressure_sealevel;temperature;humidity
31121;BME280;17770;45.966;13.632;2023-02-18T00:00:37;101895.13;;;15.43;61.19
31121;BME280;17770;45.966;13.632;2023-02-18T00:03:03;101896.00;;;15.42;61.26
31121;BME280;17770;45.966;13.632;2023-02-18T00:05:29;101896.84;;;15.43;61.06
31121;BME280;17770;45.966;13.632;2023-02-18T00:07:54;101890.75;;;15.44;61.28
31121;BME280;17770;45.966;13.632;2023-02-18T00:10:20;101891.66;;;15.43;61.13
31121;BME280;17770;45.966;13.632;2023-02-18T00:12:46;101887.38;;;15.40;61.02
31121;BME280;17770;45.966;13.632;2023-02-18T00:15:12;101891.69;;;15.41;61.39
31121;BME280;17770;45.966;13.632;2023-02-18T00:17:38;101889.97;;;15.42;61.02
31121;BME280;17770;45.966;13.632;2023-02-18T00:20:04;101896.91;;;15.41;61.43
31121;BME280;17770;45.966;13.632;2023-02-18T00:22:30;101894.22;;;15.44;61.10
31121;BME280;17770;45.966;13.632;2023-02-18T00:24:56;101887.31;;;15.43;60.82
31121;BME280;17770;45.966;13.632;2023-02-18T00:27:22;101878.75;;;15.40;60.86
31121;BME280;17770;45.966;13.632;2023-02-18T00:29:48;101879.56;;;15.40;61.38
31121;BME280;17770;45.966;13.632;2023-02-18T00:32:14;101878.66;;;15.43;61.23
31121;BME280;17770;45.966;13.632;2023-02-18T00:34:39;101873.53;;;15.40;61.60
31121;BME280;17770;45.966;13.632;2023-02-18T00:37:05;101877.78;;;15.42;61.22
31121;BME280;17770;45.966;13.632;2023-02-18T00:39:31;101879.56;;;15.40;61.40
31121;BME280;17770;45.966;13.632;2023-02-18T00:41:57;101882.19;;;15.40;61.01
31121;BME280;17770;45.966;13.632;2023-02-18T00:44:23;101874.38;;;15.42;60.78
31121;BME280;17770;45.966;13.632;2023-02-18T00:46:48;101875.19;;;15.42;61.64
31121;BME280;17770;45.966;13.632;2023-02-18T00:49:15;101882.19;;;15.40;60.93
31121;BME280;17770;45.966;13.632;2023-02-18T00:51:41;101876.97;;;15.40;61.19
31121;BME280;17770;45.966;13.632;2023-02-18T00:54:07;101881.41;;;15.37;61.06
31121;BME280;17770;45.966;13.632;2023-02-18T00:56:34;101873.53;;;15.40;60.75
31121;BME280;17770;45.966;13.632;2023-02-18T00:58:59;101880.44;;;15.41;61.24
31121;BME280;17770;45.966;13.632;2023-02-18T01:01:25;101872.63;;;15.41;61.15
31121;BME280;17770;45.966;13.632;2023-02-18T01:03:52;101861.41;;;15.39;61.13
31121;BME280;17770;45.966;13.632;2023-02-18T01:06:18;101859.63;;;15.41;60.90
31121;BME280;17770;45.966;13.632;2023-02-18T01:08:44;101847.56;;;15.40;61.15
31121;BME280;17770;45.966;13.632;2023-02-18T01:11:10;101847.56;;;15.38;60.91
31121;BME280;17770;45.966;13.632;2023-02-18T01:13:36;101851.03;;;15.37;61.50
31121;BME280;17770;45.966;13.632;2023-02-18T01:16:05;101847.59;;;15.37;61.16
31121;BME280;17770;45.966;13.632;2023-02-18T01:18:31;101850.16;;;15.38;61.30
31121;BME280;17770;45.966;13.632;2023-02-18T01:20:57;101848.44;;;15.37;61.36
31121;BME280;17770;45.966;13.632;2023-02-18T01:23:23;101848.47;;;15.36;60.79
31121;BME280;17770;45.966;13.632;2023-02-18T01:25:49;101853.66;;;15.36;61.08
31121;BME280;17770;45.966;13.632;2023-02-18T01:28:15;101845.00;;;15.35;60.81
31121;BME280;17770;45.966;13.632;2023-02-18T01:30:42;101841.50;;;15.38;60.82
31121;BME280;17770;45.966;13.632;2023-02-18T01:33:08;101829.41;;;15.37;61.03
31121;BME280;17770;45.966;13.632;2023-02-18T01:35:40;101830.28;;;15.36;61.23
31121;BME280;17770;45.966;13.632;2023-02-18T01:38:06;101829.41;;;15.35;61.07
31121;BME280;17770;45.966;13.632;2023-02-18T01:40:32;101822.47;;;15.36;60.86
31121;BME280;17770;45.966;13.632;2023-02-18T01:42:58;101836.38;;;15.35;61.52
31121;BME280;17770;45.966;13.632;2023-02-18T01:50:25;101832.06;;;15.34;61.17
31121;BME280;17770;45.966;13.632;2023-02-18T01:52:52;101822.47;;;15.36;61.04
31121;BME280;17770;45.966;13.632;2023-02-18T01:55:17;101811.25;;;15.34;60.95
31121;BME280;17770;45.966;13.632;2023-02-18T01:57:43;101818.22;;;15.33;61.01
31121;BME280;17770;45.966;13.632;2023-02-18T02:00:11;101819.97;;;15.33;61.26
31121;BME280;17770;45.966;13.632;2023-02-18T02:02:46;101824.25;;;15.34;61.03
31121;BME280;17770;45.966;13.632;2023-02-18T02:05:12;101812.16;;;15.33;61.34
31121;BME280;17770;45.966;13.632;2023-02-18T02:07:38;101813.03;;;15.33;61.10
31121;BME280;17770;45.966;13.632;2023-02-18T02:10:06;101812.16;;;15.33;60.93
31121;BME280;17770;45.966;13.632;2023-02-18T02:15:10;101813.97;;;15.29;60.95
31121;BME280;17770;45.966;13.632;2023-02-18T02:18:01;101813.91;;;15.32;61.17
31121;BME280;17770;45.966;13.632;2023-02-18T02:33:39;101807.06;;;15.30;61.37
31121;BME280;17770;45.966;13.632;2023-02-18T02:38:39;101797.53;;;15.29;61.07
31121;BME280;17770;45.966;13.632;2023-02-18T02:44:01;101811.34;;;15.31;61.29
31121;BME280;17770;45.966;13.632;2023-02-18T02:47:07;101801.84;;;15.30;61.40
31121;BME280;17770;45.966;13.632;2023-02-18T02:49:40;101805.28;;;15.30;60.93
31121;BME280;17770;45.966;13.632;2023-02-18T02:52:14;101799.28;;;15.28;61.31
31121;BME280;17770;45.966;13.632;2023-02-18T02:54:43;101792.38;;;15.27;61.27
31121;BME280;17770;45.966;13.632;2023-02-18T02:59:48;101801.00;;;15.29;61.07
31121;BME280;17770;45.966;13.632;2023-02-18T03:12:33;101789.78;;;15.27;61.46
31121;BME280;17770;45.966;13.632;2023-02-18T03:15:14;101788.91;;;15.28;61.22
31121;BME280;17770;45.966;13.632;2023-02-18T03:20:11;101792.38;;;15.27;61.02
31121;BME280;17770;45.966;13.632;2023-02-18T03:22:40;101794.19;;;15.25;61.10
31121;BME280;17770;45.966;13.632;2023-02-18T03:25:08;101781.97;;;15.27;61.36
31121;BME280;17770;45.966;13.632;2023-02-18T03:28:00;101788.03;;;15.28;61.19
31121;BME280;17770;45.966;13.632;2023-02-18T03:30:28;101796.75;;;15.27;61.25
31121;BME280;17770;45.966;13.632;2023-02-18T03:32:57;101798.47;;;15.26;61.36
31121;BME280;17770;45.966;13.632;2023-02-18T03:35:25;101797.56;;;15.27;60.98
31121;BME280;17770;45.966;13.632;2023-02-18T03:37:57;101796.75;;;15.27;61.07
31121;BME280;17770;45.966;13.632;2023-02-18T03:40:31;101796.75;;;15.27;60.96
31121;BME280;17770;45.966;13.632;2023-02-18T03:43:00;101800.22;;;15.26;61.54
31121;BME280;17770;45.966;13.632;2023-02-18T03:45:26;101801.06;;;15.26;61.00
31121;BME280;17770;45.966;13.632;2023-02-18T03:47:52;101791.59;;;15.25;61.40
31121;BME280;17770;45.966;13.632;2023-02-18T03:50:18;101799.38;;;15.25;61.12
31121;BME280;17770;45.966;13.632;2023-02-18T03:52:44;101816.66;;;15.26;61.01
31121;BME280;17770;45.966;13.632;2023-02-18T03:55:10;101816.72;;;15.25;60.84
31121;BME280;17770;45.966;13.632;2023-02-18T03:57:36;101803.72;;;15.25;61.11
31121;BME280;17770;45.966;13.632;2023-02-18T04:00:02;101801.16;;;15.23;61.30
31121;BME280;17770;45.966;13.632;2023-02-18T04:02:38;101805.50;;;15.23;61.12
31121;BME280;17770;45.966;13.632;2023-02-18T04:05:04;101803.75;;;15.23;61.30
31121;BME280;17770;45.966;13.632;2023-02-18T04:07:30;101801.97;;;15.25;61.37
31121;BME280;17770;45.966;13.632;2023-02-18T04:09:56;101801.13;;;15.25;60.87
31121;BME280;17770;45.966;13.632;2023-02-18T04:12:22;101795.91;;;15.25;60.96
31121;BME280;17770;45.966;13.632;2023-02-18T04:14:47;101798.50;;;15.25;61.08
31121;BME280;17770;45.966;13.632;2023-02-18T04:17:13;101806.34;;;15.23;61.39
31121;BME280;17770;45.966;13.632;2023-02-18T04:19:39;101792.50;;;15.23;61.09
31121;BME280;17770;45.966;13.632;2023-02-18T04:22:05;101796.78;;;15.24;61.00
31121;BME280;17770;45.966;13.632;2023-02-18T04:24:31;101796.00;;;15.22;61.06
31121;BME280;17770;45.966;13.632;2023-02-18T04:26:57;101794.22;;;15.22;61.18
31121;BME280;17770;45.966;13.632;2023-02-18T04:29:22;101789.06;;;15.21;60.93
31121;BME280;17770;45.966;13.632;2023-02-18T04:31:48;101784.66;;;15.24;60.94
31121;BME280;17770;45.966;13.632;2023-02-18T04:34:14;101791.59;;;15.24;61.62
31121;BME280;17770;45.966;13.632;2023-02-18T04:36:40;101779.47;;;15.24;61.21
31121;BME280;17770;45.966;13.632;2023-02-18T04:39:06;101776.91;;;15.23;61.07
31121;BME280;17770;45.966;13.632;2023-02-18T04:41:32;101787.25;;;15.24;61.28
31121;BME280;17770;45.966;13.632;2023-02-18T04:43:57;101789.03;;;15.22;60.95
31121;BME280;17770;45.966;13.632;2023-02-18T04:46:24;101779.50;;;15.23;61.23
31121;BME280;17770;45.966;13.632;2023-02-18T04:48:50;101779.50;;;15.23;61.23
31121;BME280;17770;45.966;13.632;2023-02-18T04:51:15;101778.59;;;15.24;60.93
31121;BME280;17770;45.966;13.632;2023-02-18T04:53:41;101773.41;;;15.24;60.96
31121;BME280;17770;45.966;13.632;2023-02-18T04:56:07;101784.69;;;15.23;61.32
31121;BME280;17770;45.966;13.632;2023-02-18T04:58:33;101770.81;;;15.24;60.89
31121;BME280;17770;45.966;13.632;2023-02-18T05:01:02;101755.22;;;15.24;60.84
31121;BME280;17770;45.966;13.632;2023-02-18T05:03:28;101762.19;;;15.23;60.85
31121;BME280;17770;45.966;13.632;2023-02-18T05:05:54;101760.44;;;15.22;60.90
31121;BME280;17770;45.966;13.632;2023-02-18T05:08:20;101757.06;;;15.19;60.92
31121;BME280;17770;45.966;13.632;2023-02-18T05:10:46;101757.91;;;15.21;61.29
31121;BME280;17770;45.966;13.632;2023-02-18T05:13:12;101762.22;;;15.22;61.51
31121;BME280;17770;45.966;13.632;2023-02-18T05:15:37;101771.75;;;15.21;61.18
31121;BME280;17770;45.966;13.632;2023-02-18T05:18:03;101775.25;;;15.20;61.09
31121;BME280;17770;45.966;13.632;2023-02-18T05:20:29;101768.34;;;15.19;61.21
31121;BME280;17770;45.966;13.632;2023-02-18T05:22:55;101770.06;;;15.20;61.09
31121;BME280;17770;45.966;13.632;2023-02-18T05:25:21;101759.66;;;15.20;61.16
31121;BME280;17770;45.966;13.632;2023-02-18T05:27:47;101760.50;;;15.21;61.19
31121;BME280;17770;45.966;13.632;2023-02-18T05:30:13;101770.88;;;15.21;61.07
31121;BME280;17770;45.966;13.632;2023-02-18T05:32:39;101775.25;;;15.20;61.35
31121;BME280;17770;45.966;13.632;2023-02-18T05:35:05;101773.47;;;15.21;61.43
31121;BME280;17770;45.966;13.632;2023-02-18T05:37:31;101761.44;;;15.18;61.17
31121;BME280;17770;45.966;13.632;2023-02-18T05:39:56;101759.72;;;15.17;61.24
31121;BME280;17770;45.966;13.632;2023-02-18T05:42:22;101761.41;;;15.20;60.85
31121;BME280;17770;45.966;13.632;2023-02-18T05:44:48;101765.72;;;15.19;60.96
31121;BME280;17770;45.966;13.632;2023-02-18T05:47:14;101769.22;;;15.18;61.01
31121;BME280;17770;45.966;13.632;2023-02-18T05:49:40;101772.72;;;15.17;60.95
31121;BME280;17770;45.966;13.632;2023-02-18T05:52:06;101765.78;;;15.18;61.08
31121;BME280;17770;45.966;13.632;2023-02-18T05:54:33;101766.69;;;15.17;61.25
31121;BME280;17770;45.966;13.632;2023-02-18T05:56:59;101767.47;;;15.19;60.94
31121;BME280;17770;45.966;13.632;2023-02-18T05:59:25;101773.56;;;15.18;60.96
31121;BME280;17770;45.966;13.632;2023-02-18T06:01:50;101783.06;;;15.19;60.76
31121;BME280;17770;45.966;13.632;2023-02-18T06:04:16;101788.25;;;15.19;61.01
31121;BME280;17770;45.966;13.632;2023-02-18T06:06:42;101786.59;;;15.16;61.22
31121;BME280;17770;45.966;13.632;2023-02-18T06:09:08;101789.19;;;15.16;60.98
31121;BME280;17770;45.966;13.632;2023-02-18T06:11:34;101795.31;;;15.15;60.86
31121;BME280;17770;45.966;13.632;2023-02-18T06:14:01;101790.94;;;15.16;60.99
31121;BME280;17770;45.966;13.632;2023-02-18T06:16:27;101790.94;;;15.16;61.34
31121;BME280;17770;45.966;13.632;2023-02-18T06:18:53;101788.34;;;15.16;61.30
31121;BME280;17770;45.966;13.632;2023-02-18T06:21:19;101786.59;;;15.16;61.27
31121;BME280;17770;45.966;13.632;2023-02-18T06:23:44;101788.34;;;15.16;60.90
31121;BME280;17770;45.966;13.632;2023-02-18T06:26:10;101785.75;;;15.16;61.10
31121;BME280;17770;45.966;13.632;2023-02-18T06:28:36;101791.84;;;15.15;61.29
31121;BME280;17770;45.966;13.632;2023-02-18T06:31:02;101797.94;;;15.14;61.16
31121;BME280;17770;45.966;13.632;2023-02-18T06:33:28;101797.06;;;15.13;61.10
31121;BME280;17770;45.966;13.632;2023-02-18T06:35:55;101786.69;;;15.13;61.39
31121;BME280;17770;45.966;13.632;2023-02-18T06:38:21;101795.34;;;15.14;61.23
31121;BME280;17770;45.966;13.632;2023-02-18T06:40:47;101800.59;;;15.11;61.13
31121;BME280;17770;45.966;13.632;2023-02-18T06:43:13;101805.75;;;15.12;61.05
31121;BME280;17770;45.966;13.632;2023-02-18T06:45:39;101789.28;;;15.13;61.65
31121;BME280;17770;45.966;13.632;2023-02-18T06:48:05;101791.03;;;15.13;61.13
31121;BME280;17770;45.966;13.632;2023-02-18T06:50:31;101783.22;;;15.13;61.22
31121;BME280;17770;45.966;13.632;2023-02-18T06:52:56;101779.75;;;15.12;61.44
31121;BME280;17770;45.966;13.632;2023-02-18T06:55:24;101793.66;;;15.11;61.26
31121;BME280;17770;45.966;13.632;2023-02-18T06:57:50;101786.72;;;15.12;61.20
31121;BME280;17770;45.966;13.632;2023-02-18T07:00:16;101780.66;;;15.11;61.31
31121;BME280;17770;45.966;13.632;2023-02-18T07:02:41;101790.16;;;15.12;61.55
31121;BME280;17770;45.966;13.632;2023-02-18T07:05:07;101785.88;;;15.11;61.42
31121;BME280;17770;45.966;13.632;2023-02-18T07:07:33;101800.56;;;15.12;61.22
31121;BME280;17770;45.966;13.632;2023-02-18T07:09:59;101799.72;;;15.12;61.38
31121;BME280;17770;45.966;13.632;2023-02-18T07:12:25;101798.00;;;15.11;61.45
31121;BME280;17770;45.966;13.632;2023-02-18T07:14:51;101796.25;;;15.11;61.11
31121;BME280;17770;45.966;13.632;2023-02-18T07:17:17;101791.97;;;15.10;61.35
31121;BME280;17770;45.966;13.632;2023-02-18T07:19:43;101785.00;;;15.11;61.36
31121;BME280;17770;45.966;13.632;2023-02-18T07:22:09;101793.66;;;15.11;61.33
31121;BME280;17770;45.966;13.632;2023-02-18T07:24:35;101803.19;;;15.11;61.59
31121;BME280;17770;45.966;13.632;2023-02-18T07:27:01;101800.59;;;15.11;61.09
31121;BME280;17770;45.966;13.632;2023-02-18T07:29:26;101804.97;;;15.10;61.22
31121;BME280;17770;45.966;13.632;2023-02-18T07:31:52;101785.00;;;15.11;61.41
31121;BME280;17770;45.966;13.632;2023-02-18T07:34:19;101794.53;;;15.12;61.17
31121;BME280;17770;45.966;13.632;2023-02-18T07:36:44;101808.38;;;15.11;61.02
31121;BME280;17770;45.966;13.632;2023-02-18T07:39:10;101795.41;;;15.11;61.17
31121;BME280;17770;45.966;13.632;2023-02-18T07:41:36;101803.19;;;15.11;61.22
31121;BME280;17770;45.966;13.632;2023-02-18T07:44:09;101803.22;;;15.09;61.30
31121;BME280;17770;45.966;13.632;2023-02-18T07:46:38;101793.66;;;15.11;61.12
31121;BME280;17770;45.966;13.632;2023-02-18T07:49:04;101799.75;;;15.10;61.37
31121;BME280;17770;45.966;13.632;2023-02-18T07:51:29;101799.75;;;15.10;61.71
31121;BME280;17770;45.966;13.632;2023-02-18T07:53:55;101803.19;;;15.11;61.70
31121;BME280;17770;45.966;13.632;2023-02-18T07:56:21;101808.44;;;15.09;61.15
31121;BME280;17770;45.966;13.632;2023-02-18T07:58:47;101809.28;;;15.10;61.49
31121;BME280;17770;45.966;13.632;2023-02-18T08:01:13;101813.53;;;15.12;61.35
31121;BME280;17770;45.966;13.632;2023-02-18T08:03:39;101811.81;;;15.13;61.50
31121;BME280;17770;45.966;13.632;2023-02-18T08:06:06;101819.66;;;15.11;61.37
31121;BME280;17770;45.966;13.632;2023-02-18T08:08:32;101807.56;;;15.10;60.70
31121;BME280;17770;45.966;13.632;2023-02-18T08:10:59;101813.59;;;15.11;61.36
31121;BME280;17770;45.966;13.632;2023-02-18T08:13:28;101817.09;;;15.10;61.42
31121;BME280;17770;45.966;13.632;2023-02-18T08:15:57;101817.94;;;15.10;61.35
31121;BME280;17770;45.966;13.632;2023-02-18T08:18:23;101814.53;;;15.08;61.24
31121;BME280;17770;45.966;13.632;2023-02-18T08:20:49;101811.88;;;15.10;61.45
31121;BME280;17770;45.966;13.632;2023-02-18T08:23:17;101821.41;;;15.09;61.08
31121;BME280;17770;45.966;13.632;2023-02-18T08:25:52;101818.00;;;15.09;61.15
31121;BME280;17770;45.966;13.632;2023-02-18T08:28:23;101818.00;;;15.09;61.27
31121;BME280;17770;45.966;13.632;2023-02-18T08:30:51;101823.16;;;15.10;61.07
31121;BME280;17770;45.966;13.632;2023-02-18T08:33:17;101823.19;;;15.09;61.57
31121;BME280;17770;45.966;13.632;2023-02-18T08:35:44;101817.09;;;15.10;61.27
31121;BME280;17770;45.966;13.632;2023-02-18T08:38:11;101815.34;;;15.10;60.95
31121;BME280;17770;45.966;13.632;2023-02-18T08:40:36;101817.94;;;15.10;61.37
31121;BME280;17770;45.966;13.632;2023-02-18T08:43:02;101811.94;;;15.08;60.99
31121;BME280;17770;45.966;13.632;2023-02-18T08:45:28;101805.94;;;15.05;61.73
31121;BME280;17770;45.966;13.632;2023-02-18T08:47:54;101815.38;;;15.09;61.08
31121;BME280;17770;45.966;13.632;2023-02-18T08:50:20;101803.28;;;15.08;61.42
31121;BME280;17770;45.966;13.632;2023-02-18T08:52:51;101818.81;;;15.09;60.97
31121;BME280;17770;45.966;13.632;2023-02-18T08:55:17;101806.72;;;15.08;61.08
31121;BME280;17770;45.966;13.632;2023-02-18T08:57:47;101802.41;;;15.09;61.45
31121;BME280;17770;45.966;13.632;2023-02-18T09:00:13;101798.94;;;15.08;61.67
31121;BME280;17770;45.966;13.632;2023-02-18T09:02:39;101805.00;;;15.09;61.28
31121;BME280;17770;45.966;13.632;2023-02-18T09:05:05;101805.88;;;15.08;61.61
31121;BME280;17770;45.966;13.632;2023-02-18T09:07:31;101804.09;;;15.10;61.09
31121;BME280;17770;45.966;13.632;2023-02-18T09:09:57;101803.28;;;15.08;61.00
31121;BME280;17770;45.966;13.632;2023-02-18T09:12:22;101805.00;;;15.07;61.51
31121;BME280;17770;45.966;13.632;2023-02-18T09:14:48;101796.38;;;15.07;61.43
31121;BME280;17770;45.966;13.632;2023-02-18T09:17:14;101785.91;;;15.10;61.13
31121;BME280;17770;45.966;13.632;2023-02-18T09:19:40;101785.91;;;15.10;61.03
31121;BME280;17770;45.966;13.632;2023-02-18T09:22:06;101801.53;;;15.08;61.39
31121;BME280;17770;45.966;13.632;2023-02-18T09:24:35;101799.81;;;15.09;61.04
31121;BME280;17770;45.966;13.632;2023-02-18T09:27:02;101793.75;;;15.08;61.05
31121;BME280;17770;45.966;13.632;2023-02-18T09:29:28;101786.81;;;15.09;61.20
31121;BME280;17770;45.966;13.632;2023-02-18T09:31:53;101787.69;;;15.08;61.12
31121;BME280;17770;45.966;13.632;2023-02-18T09:34:19;101782.47;;;15.08;61.33
31121;BME280;17770;45.966;13.632;2023-02-18T09:36:45;101779.03;;;15.09;61.12
31121;BME280;17770;45.966;13.632;2023-02-18T09:39:11;101776.41;;;15.09;61.51
31121;BME280;17770;45.966;13.632;2023-02-18T09:41:41;101772.06;;;15.09;61.08
31121;BME280;17770;45.966;13.632;2023-02-18T09:44:10;101776.38;;;15.10;61.25
31121;BME280;17770;45.966;13.632;2023-02-18T09:46:38;101769.47;;;15.09;61.08
31121;BME280;17770;45.966;13.632;2023-02-18T09:49:06;101765.16;;;15.08;61.13
31121;BME280;17770;45.966;13.632;2023-02-18T09:51:36;101772.06;;;15.09;61.10
31121;BME280;17770;45.966;13.632;2023-02-18T09:54:02;101765.97;;;15.10;61.04
31121;BME280;17770;45.966;13.632;2023-02-18T09:56:30;101764.25;;;15.09;61.48
31121;BME280;17770;45.966;13.632;2023-02-18T09:58:57;101772.91;;;15.10;61.47
31121;BME280;17770;45.966;13.632;2023-02-18T10:01:31;101778.16;;;15.08;61.02
31121;BME280;17770;45.966;13.632;2023-02-18T10:04:12;101765.13;;;15.10;61.25
31121;BME280;17770;45.966;13.632;2023-02-18T10:06:39;101772.88;;;15.11;61.23
31121;BME280;17770;45.966;13.632;2023-02-18T10:09:06;101778.94;;;15.12;61.10
31121;BME280;17770;45.966;13.632;2023-02-18T10:11:37;101771.22;;;15.09;61.10
31121;BME280;17770;45.966;13.632;2023-02-18T10:14:05;101772.88;;;15.11;61.01
31121;BME280;17770;45.966;13.632;2023-02-18T10:16:33;101768.53;;;15.12;61.14
31121;BME280;17770;45.966;13.632;2023-02-18T10:19:00;101781.56;;;15.10;61.47
31121;BME280;17770;45.966;13.632;2023-02-18T10:21:32;101776.34;;;15.12;61.14
31121;BME280;17770;45.966;13.632;2023-02-18T10:26:30;101778.94;;;15.12;60.93
31121;BME280;17770;45.966;13.632;2023-02-18T10:28:58;101772.84;;;15.13;61.45
31121;BME280;17770;45.966;13.632;2023-02-18T10:31:28;101763.34;;;15.12;61.22
31121;BME280;17770;45.966;13.632;2023-02-18T10:36:30;101763.34;;;15.12;61.12
31121;BME280;17770;45.966;13.632;2023-02-18T10:41:33;101770.22;;;15.13;61.05
31121;BME280;17770;45.966;13.632;2023-02-18T10:46:58;101762.44;;;15.13;61.40
31121;BME280;17770;45.966;13.632;2023-02-18T10:51:51;101750.34;;;15.12;61.10
31121;BME280;17770;45.966;13.632;2023-02-18T10:54:23;101748.56;;;15.14;61.09
31121;BME280;17770;45.966;13.632;2023-02-18T10:56:50;101737.31;;;15.13;60.89
31121;BME280;17770;45.966;13.632;2023-02-18T10:59:23;101735.59;;;15.14;61.50
31121;BME280;17770;45.966;13.632;2023-02-18T11:01:59;101734.69;;;15.15;61.16
31121;BME280;17770;45.966;13.632;2023-02-18T11:04:27;101742.44;;;15.16;60.81
31121;BME280;17770;45.966;13.632;2023-02-18T11:07:03;101748.53;;;15.15;61.35
31121;BME280;17770;45.966;13.632;2023-02-18T11:09:39;101753.72;;;15.15;61.11
31121;BME280;17770;45.966;13.632;2023-02-18T11:14:44;101738.09;;;15.17;61.01
31121;BME280;17770;45.966;13.632;2023-02-18T11:17:21;101732.94;;;15.15;61.10
31121;BME280;17770;45.966;13.632;2023-02-18T11:19:51;101731.16;;;15.16;61.34
31121;BME280;17770;45.966;13.632;2023-02-18T11:22:19;101728.56;;;15.16;61.41
31121;BME280;17770;45.966;13.632;2023-02-18T11:24:46;101722.50;;;15.17;61.25
31121;BME280;17770;45.966;13.632;2023-02-18T11:27:20;101720.78;;;15.16;61.47
31121;BME280;17770;45.966;13.632;2023-02-18T11:29:49;101717.31;;;15.17;61.35
31121;BME280;17770;45.966;13.632;2023-02-18T11:32:15;101706.88;;;15.18;61.26
31121;BME280;17770;45.966;13.632;2023-02-18T11:34:41;101708.56;;;15.19;61.33
31121;BME280;17770;45.966;13.632;2023-02-18T11:37:09;101699.06;;;15.18;61.27
31121;BME280;17770;45.966;13.632;2023-02-18T11:39:36;101689.50;;;15.19;61.43
31121;BME280;17770;45.966;13.632;2023-02-18T11:42:07;101701.63;;;15.20;61.46
31121;BME280;17770;45.966;13.632;2023-02-18T11:44:42;101695.53;;;15.21;61.23
31121;BME280;17770;45.966;13.632;2023-02-18T11:49:39;101697.28;;;15.20;61.10
31121;BME280;17770;45.966;13.632;2023-02-18T11:54:40;101682.53;;;15.21;61.47
31121;BME280;17770;45.966;13.632;2023-02-18T11:57:09;101683.34;;;15.23;61.56
31121;BME280;17770;45.966;13.632;2023-02-18T11:59:37;101679.84;;;15.24;61.51
31121;BME280;17770;45.966;13.632;2023-02-18T12:04:45;101671.22;;;15.23;61.25
31121;BME280;17770;45.966;13.632;2023-02-18T12:07:16;101667.72;;;15.24;60.93
31121;BME280;17770;45.966;13.632;2023-02-18T12:09:51;101659.06;;;15.24;61.38
31121;BME280;17770;45.966;13.632;2023-02-18T12:12:26;101664.25;;;15.24;61.51
31121;BME280;17770;45.966;13.632;2023-02-18T12:14:53;101655.56;;;15.25;60.93
31121;BME280;17770;45.966;13.632;2023-02-18T12:17:23;101653.84;;;15.24;61.58
31121;BME280;17770;45.966;13.632;2023-02-18T12:22:33;101646.91;;;15.24;61.22
31121;BME280;17770;45.966;13.632;2023-02-18T12:33:49;101619.19;;;15.25;61.35
31121;BME280;17770;45.966;13.632;2023-02-18T12:51:17;101612.16;;;15.28;61.51
31121;BME280;17770;45.966;13.632;2023-02-18T13:01:50;101593.94;;;15.30;61.56
31121;BME280;17770;45.966;13.632;2023-02-18T13:09:18;101573.13;;;15.30;61.46
31121;BME280;17770;45.966;13.632;2023-02-18T13:16:42;101558.31;;;15.33;61.18
31121;BME280;17770;45.966;13.632;2023-02-18T13:21:40;101544.50;;;15.31;61.03
31121;BME280;17770;45.966;13.632;2023-02-18T13:24:09;101545.31;;;15.33;61.26
31121;BME280;17770;45.966;13.632;2023-02-18T13:26:37;101551.34;;;15.34;61.54
31121;BME280;17770;45.966;13.632;2023-02-18T13:36:43;101541.81;;;15.34;61.27
31121;BME280;17770;45.966;13.632;2023-02-18T13:39:13;101549.59;;;15.34;61.54
31121;BME280;17770;45.966;13.632;2023-02-18T13:41:45;101533.13;;;15.34;61.47
31121;BME280;17770;45.966;13.632;2023-02-18T13:46:56;101541.81;;;15.34;61.51
31121;BME280;17770;45.966;13.632;2023-02-18T13:49:23;101534.00;;;15.34;61.66
31121;BME280;17770;45.966;13.632;2023-02-18T13:51:50;101527.06;;;15.35;61.53
31121;BME280;17770;45.966;13.632;2023-02-18T13:56:42;101519.22;;;15.36;61.25
31121;BME280;17770;45.966;13.632;2023-02-18T13:59:11;101517.50;;;15.35;61.08
31121;BME280;17770;45.966;13.632;2023-02-18T14:01:45;101514.03;;;15.36;61.48
31121;BME280;17770;45.966;13.632;2023-02-18T14:09:41;101505.31;;;15.37;61.60
31121;BME280;17770;45.966;13.632;2023-02-18T14:12:15;101514.81;;;15.40;61.54
31121;BME280;17770;45.966;13.632;2023-02-18T14:14:41;101507.03;;;15.38;61.24
31121;BME280;17770;45.966;13.632;2023-02-18T14:27:33;101502.63;;;15.42;61.60
31121;BME280;17770;45.966;13.632;2023-02-18T14:30:03;101493.06;;;15.42;61.99
31121;BME280;17770;45.966;13.632;2023-02-18T14:32:29;101499.97;;;15.43;61.36
31121;BME280;17770;45.966;13.632;2023-02-18T14:40:09;101489.59;;;15.43;61.40
31121;BME280;17770;45.966;13.632;2023-02-18T14:45:30;101475.66;;;15.44;61.52
31121;BME280;17770;45.966;13.632;2023-02-18T14:50:42;101463.53;;;15.45;61.43
31121;BME280;17770;45.966;13.632;2023-02-18T14:53:13;101472.09;;;15.47;61.39
31121;BME280;17770;45.966;13.632;2023-02-18T14:55:43;101462.69;;;15.44;61.22
31121;BME280;17770;45.966;13.632;2023-02-18T15:00:41;101465.16;;;15.47;61.54
31121;BME280;17770;45.966;13.632;2023-02-18T15:03:12;101460.03;;;15.46;61.40
31121;BME280;17770;45.966;13.632;2023-02-18T15:05:39;101468.63;;;15.48;61.89
31121;BME280;17770;45.966;13.632;2023-02-18T15:08:06;101465.16;;;15.47;61.28
31121;BME280;17770;45.966;13.632;2023-02-18T15:13:02;101468.63;;;15.48;61.79
31121;BME280;17770;45.966;13.632;2023-02-18T15:15:29;101460.84;;;15.48;61.73
31121;BME280;17770;45.966;13.632;2023-02-18T15:17:57;101461.72;;;15.47;61.83